Time;durP1;ratioP1;P1;durP2;ratioP2;P2;SDS_P1;SDS_P2;PMS_P1;PMS_P2;Temp;Humidity;BMP_temperature;BMP_pressure;BME280_temperature;BME280_humidity;BME280_pressure;Samples;Min_cycle;Max_cycle;Signal;HPM_P1;HPM_P2
2022/09/05 00:01:46;;;;;;;;;;;20.60;44.10;;;;;;447165;264;1321;-50
2022/09/05 00:03:48;;;;;;;;;;;20.70;44.10;;;;;;447354;264;1136;-51
2022/09/05 00:05:49;;;;;;;;;;;20.70;44.00;;;;;;447141;264;1487;-51
2022/09/05 00:07:50;;;;;;;;;;;20.70;44.00;;;;;;447433;264;1346;-50
2022/09/05 00:09:53;;;;;;;;;;;20.70;44.00;;;;;;447162;264;1295;-50
2022/09/05 00:11:53;;;;;;;;;;;20.70;44.00;;;;;;447436;264;1381;-50
2022/09/05 00:13:54;;;;;;;;;;;20.70;43.90;;;;;;447160;264;1295;-50
2022/09/05 00:15:56;;;;;;;;;;;20.70;43.80;;;;;;447449;264;1275;-51
2022/09/05 00:17:57;;;;;;;;;;;20.70;43.80;;;;;;447051;265;2233;-50
2022/09/05 00:19:58;;;;;;;;;;;20.70;43.80;;;;;;447301;264;1272;-50
2022/09/05 00:22:00;;;;;;;;;;;20.60;43.80;;;;;;447421;264;1437;-50
2022/09/05 00:24:01;;;;;;;;;;;20.60;43.80;;;;;;447064;265;1289;-51
2022/09/05 00:26:02;;;;;;;;;;;20.70;43.80;;;;;;447278;264;1304;-50
2022/09/05 00:28:04;;;;;;;;;;;20.70;43.90;;;;;;447075;265;1267;-50
2022/09/05 00:30:05;;;;;;;;;;;20.70;43.70;;;;;;447115;264;1253;-50
2022/09/05 00:32:07;;;;;;;;;;;20.60;43.70;;;;;;447071;265;1284;-51
2022/09/05 00:34:08;;;;;;;;;;;20.70;43.70;;;;;;447455;264;1322;-50
2022/09/05 00:36:09;;;;;;;;;;;20.70;43.70;;;;;;447052;265;1265;-51
2022/09/05 00:38:10;;;;;;;;;;;20.70;43.60;;;;;;447047;265;2228;-50
2022/09/05 00:40:12;;;;;;;;;;;20.70;43.60;;;;;;447307;264;1297;-50
2022/09/05 00:42:13;;;;;;;;;;;20.70;43.60;;;;;;447321;264;1268;-50
2022/09/05 00:44:14;;;;;;;;;;;20.70;43.60;;;;;;447168;264;1718;-50
2022/09/05 00:46:16;;;;;;;;;;;20.70;43.50;;;;;;446994;265;1245;-50
2022/09/05 00:48:17;;;;;;;;;;;20.70;43.50;;;;;;446976;265;1629;-51
2022/09/05 00:50:18;;;;;;;;;;;20.70;43.50;;;;;;446958;265;1348;-50
2022/09/05 00:52:20;;;;;;;;;;;20.60;43.40;;;;;;447019;264;1274;-50
2022/09/05 00:54:21;;;;;;;;;;;20.60;43.40;;;;;;446947;265;1701;-49
2022/09/05 00:56:22;;;;;;;;;;;20.70;43.50;;;;;;447089;263;1710;-50
2022/09/05 00:58:24;;;;;;;;;;;20.70;43.40;;;;;;447011;265;2185;-50
2022/09/05 01:00:25;;;;;;;;;;;20.70;43.40;;;;;;447320;264;1302;-50
2022/09/05 01:02:26;;;;;;;;;;;20.70;43.40;;;;;;447036;265;1311;-50
2022/09/05 01:04:28;;;;;;;;;;;20.70;43.30;;;;;;447429;264;1340;-50
2022/09/05 01:06:29;;;;;;;;;;;20.70;43.30;;;;;;447133;264;1222;-51
2022/09/05 01:08:30;;;;;;;;;;;20.70;43.30;;;;;;447201;264;1314;-51
2022/09/05 01:10:32;;;;;;;;;;;20.70;43.30;;;;;;447073;263;1184;-50
2022/09/05 01:12:33;;;;;;;;;;;20.70;43.30;;;;;;447458;264;2425;-49
2022/09/05 01:14:34;;;;;;;;;;;20.70;43.20;;;;;;447279;264;1196;-51
2022/09/05 01:16:36;;;;;;;;;;;20.70;43.20;;;;;;447482;264;1128;-50
2022/09/05 01:18:37;;;;;;;;;;;20.70;43.20;;;;;;447204;264;2185;-50
2022/09/05 01:20:38;;;;;;;;;;;20.70;43.20;;;;;;447388;264;1341;-51
2022/09/05 01:22:40;;;;;;;;;;;20.70;43.30;;;;;;447461;264;1482;-50
2022/09/05 01:24:41;;;;;;;;;;;20.70;43.40;;;;;;447449;264;1229;-50
2022/09/05 01:26:43;;;;;;;;;;;20.70;43.40;;;;;;447110;264;1265;-50
2022/09/05 01:28:44;;;;;;;;;;;20.70;43.40;;;;;;447105;265;1239;-50
2022/09/05 01:30:45;;;;;;;;;;;20.70;43.30;;;;;;447116;264;1315;-50
2022/09/05 01:32:47;;;;;;;;;;;20.70;43.30;;;;;;447477;264;1188;-51
2022/09/05 01:34:48;;;;;;;;;;;20.70;43.30;;;;;;447248;264;1232;-50
2022/09/05 01:36:49;;;;;;;;;;;20.70;43.30;;;;;;447079;264;1304;-51
2022/09/05 01:38:51;;;;;;;;;;;20.70;43.20;;;;;;447070;265;2213;-51
2022/09/05 01:40:52;;;;;;;;;;;20.70;43.20;;;;;;447451;264;1363;-49
2022/09/05 01:42:53;;;;;;;;;;;20.70;43.20;;;;;;447464;264;1224;-50
2022/09/05 01:44:55;;;;;;;;;;;20.70;43.10;;;;;;447463;264;1169;-51
2022/09/05 01:46:56;;;;;;;;;;;20.70;43.10;;;;;;447050;265;1251;-50
2022/09/05 01:48:58;;;;;;;;;;;20.70;43.10;;;;;;447064;265;1292;-50
2022/09/05 01:50:59;;;;;;;;;;;20.70;43.10;;;;;;447304;263;1699;-51
2022/09/05 01:53:00;;;;;;;;;;;20.70;43.10;;;;;;447418;264;1303;-50
2022/09/05 01:55:01;;;;;;;;;;;20.70;43.10;;;;;;447090;264;1300;-50
2022/09/05 01:57:03;;;;;;;;;;;20.70;43.10;;;;;;447299;264;1351;-50
2022/09/05 01:59:04;;;;;;;;;;;20.70;43.00;;;;;;447249;264;2224;-50
2022/09/05 02:01:05;;;;;;;;;;;20.70;43.00;;;;;;447372;264;1365;-51
2022/09/05 02:03:06;;;;;;;;;;;20.70;43.00;;;;;;447281;264;1468;-50
2022/09/05 02:05:08;;;;;;;;;;;20.70;42.90;;;;;;447183;264;1385;-51
2022/09/05 02:07:09;;;;;;;;;;;20.70;43.00;;;;;;447160;264;1347;-50
2022/09/05 02:09:11;;;;;;;;;;;20.70;43.00;;;;;;447411;264;1427;-50
2022/09/05 02:11:12;;;;;;;;;;;20.70;42.90;;;;;;447420;264;1335;-50
2022/09/05 02:13:13;;;;;;;;;;;20.70;42.90;;;;;;447074;264;1301;-50
2022/09/05 02:15:14;;;;;;;;;;;20.70;43.00;;;;;;447037;265;1478;-50
2022/09/05 02:17:16;;;;;;;;;;;20.70;43.00;;;;;;447048;265;1261;-50
2022/09/05 02:19:17;;;;;;;;;;;20.70;42.90;;;;;;447044;265;2225;-50
2022/09/05 02:21:18;;;;;;;;;;;20.70;42.80;;;;;;447385;264;1360;-50
2022/09/05 02:23:20;;;;;;;;;;;20.70;42.90;;;;;;447445;264;1330;-50
2022/09/05 02:25:21;;;;;;;;;;;20.70;42.80;;;;;;447429;264;1313;-51
2022/09/05 02:27:23;;;;;;;;;;;20.70;42.80;;;;;;447049;263;1251;-50
2022/09/05 02:29:24;;;;;;;;;;;20.70;42.70;;;;;;447066;264;1617;-50
2022/09/05 02:31:25;;;;;;;;;;;20.70;42.70;;;;;;447356;264;1296;-51
2022/09/05 02:33:26;;;;;;;;;;;20.70;42.70;;;;;;447371;264;1327;-51
2022/09/05 02:35:28;;;;;;;;;;;20.70;42.80;;;;;;447312;264;1299;-50
2022/09/05 02:37:29;;;;;;;;;;;20.70;42.70;;;;;;447232;264;1369;-49
2022/09/05 02:39:31;;;;;;;;;;;20.70;42.80;;;;;;447059;265;2216;-49
2022/09/05 02:41:32;;;;;;;;;;;20.70;42.90;;;;;;447448;264;1282;-50
2022/09/05 02:43:33;;;;;;;;;;;20.70;42.90;;;;;;447061;265;1335;-50
2022/09/05 02:45:34;;;;;;;;;;;20.60;43.00;;;;;;447438;264;1259;-50
2022/09/05 02:47:36;;;;;;;;;;;20.70;42.90;;;;;;447318;264;1272;-50
2022/09/05 02:49:37;;;;;;;;;;;20.70;42.80;;;;;;447448;264;1214;-50
2022/09/05 02:51:38;;;;;;;;;;;20.70;42.80;;;;;;447095;264;1381;-50
2022/09/05 02:53:40;;;;;;;;;;;20.70;42.90;;;;;;447063;265;1213;-50
2022/09/05 02:55:41;;;;;;;;;;;20.70;42.80;;;;;;447439;264;1306;-50
2022/09/05 02:57:42;;;;;;;;;;;20.70;42.70;;;;;;447057;265;1287;-50
2022/09/05 02:59:44;;;;;;;;;;;20.70;42.80;;;;;;447235;264;2185;-51
2022/09/05 03:01:45;;;;;;;;;;;20.70;42.70;;;;;;447432;264;1224;-49
2022/09/05 03:03:46;;;;;;;;;;;20.70;42.70;;;;;;447104;265;1302;-50
2022/09/05 03:05:48;;;;;;;;;;;20.70;42.70;;;;;;447059;265;1344;-50
2022/09/05 03:07:49;;;;;;;;;;;20.70;42.70;;;;;;447258;264;1402;-50
2022/09/05 03:09:50;;;;;;;;;;;20.70;42.70;;;;;;447299;264;1222;-50
2022/09/05 03:11:52;;;;;;;;;;;20.70;42.60;;;;;;447438;264;1329;-50
2022/09/05 03:13:54;;;;;;;;;;;20.70;42.60;;;;;;447181;264;1368;-50
2022/09/05 03:15:55;;;;;;;;;;;20.70;42.70;;;;;;447458;264;1613;-50
2022/09/05 03:17:56;;;;;;;;;;;20.70;42.60;;;;;;447319;264;1325;-50
2022/09/05 03:19:57;;;;;;;;;;;20.70;42.60;;;;;;447169;264;2180;-51
2022/09/05 03:21:59;;;;;;;;;;;20.70;42.50;;;;;;447431;264;1390;-50
2022/09/05 03:24:00;;;;;;;;;;;20.70;42.50;;;;;;447097;264;1290;-50
2022/09/05 03:26:01;;;;;;;;;;;20.70;42.60;;;;;;447186;264;1229;-50
2022/09/05 03:28:03;;;;;;;;;;;20.70;42.50;;;;;;447473;264;1197;-50
2022/09/05 03:30:04;;;;;;;;;;;20.70;42.50;;;;;;447311;264;1290;-50
2022/09/05 03:32:05;;;;;;;;;;;20.70;42.50;;;;;;447438;264;1326;-51
2022/09/05 03:34:07;;;;;;;;;;;20.70;42.50;;;;;;447066;265;1238;-50
2022/09/05 03:36:08;;;;;;;;;;;20.70;42.40;;;;;;447251;264;1316;-50
2022/09/05 03:38:09;;;;;;;;;;;20.70;42.50;;;;;;447053;265;1378;-50
2022/09/05 03:40:10;;;;;;;;;;;20.70;42.50;;;;;;447345;264;2192;-50
2022/09/05 03:42:12;;;;;;;;;;;20.70;42.50;;;;;;447222;264;1285;-50
2022/09/05 03:44:13;;;;;;;;;;;20.70;42.40;;;;;;447063;265;1342;-51
2022/09/05 03:46:15;;;;;;;;;;;20.70;42.40;;;;;;447338;264;1288;-49
2022/09/05 03:48:16;;;;;;;;;;;20.70;42.40;;;;;;447442;264;1326;-50
2022/09/05 03:50:17;;;;;;;;;;;20.70;42.40;;;;;;447415;264;1432;-50
2022/09/05 03:52:19;;;;;;;;;;;20.70;42.40;;;;;;447089;264;1582;-50
2022/09/05 03:54:20;;;;;;;;;;;20.70;42.40;;;;;;447049;265;1258;-49
2022/09/05 03:56:21;;;;;;;;;;;20.70;42.40;;;;;;447191;264;1297;-49
2022/09/05 03:58:23;;;;;;;;;;;20.70;42.50;;;;;;447427;264;1334;-50
2022/09/05 04:00:24;;;;;;;;;;;20.70;42.60;;;;;;447061;264;2181;-50
2022/09/05 04:02:26;;;;;;;;;;;20.70;42.60;;;;;;447447;264;1229;-50
2022/09/05 04:04:26;;;;;;;;;;;20.70;42.60;;;;;;447349;264;2384;-50
2022/09/05 04:06:28;;;;;;;;;;;20.70;42.50;;;;;;446988;265;1295;-50
2022/09/05 04:08:29;;;;;;;;;;;20.70;42.50;;;;;;447179;264;1407;-50
2022/09/05 04:10:30;;;;;;;;;;;20.70;42.50;;;;;;447400;264;1262;-50
2022/09/05 04:12:32;;;;;;;;;;;20.70;42.50;;;;;;447082;264;1386;-50
2022/09/05 04:14:33;;;;;;;;;;;20.70;42.50;;;;;;447056;265;2087;-50
2022/09/05 04:16:34;;;;;;;;;;;20.70;42.40;;;;;;447189;264;1290;-50
2022/09/05 04:18:36;;;;;;;;;;;20.70;42.40;;;;;;447197;264;1304;-50
2022/09/05 04:20:37;;;;;;;;;;;20.70;42.40;;;;;;447048;265;2157;-51
2022/09/05 04:22:38;;;;;;;;;;;20.70;42.40;;;;;;447064;265;1329;-51
2022/09/05 04:24:40;;;;;;;;;;;20.70;42.40;;;;;;447078;265;1326;-51
2022/09/05 04:26:41;;;;;;;;;;;20.70;42.30;;;;;;447207;264;1279;-50
2022/09/05 04:28:42;;;;;;;;;;;20.70;42.30;;;;;;447437;264;1271;-50
2022/09/05 04:30:44;;;;;;;;;;;20.70;42.40;;;;;;447336;264;1369;-51
2022/09/05 04:32:45;;;;;;;;;;;20.70;42.40;;;;;;447064;265;1294;-50
2022/09/05 04:34:46;;;;;;;;;;;20.70;42.40;;;;;;447434;264;1304;-50
2022/09/05 04:36:48;;;;;;;;;;;20.70;42.30;;;;;;447038;265;1352;-50
2022/09/05 04:38:49;;;;;;;;;;;20.70;42.30;;;;;;447251;264;1312;-50
2022/09/05 04:40:50;;;;;;;;;;;20.70;42.30;;;;;;447309;264;2144;-50
2022/09/05 04:42:52;;;;;;;;;;;20.70;42.40;;;;;;447398;264;1356;-50
2022/09/05 04:44:53;;;;;;;;;;;20.70;42.30;;;;;;447042;265;1292;-50
2022/09/05 04:46:54;;;;;;;;;;;20.70;42.30;;;;;;447408;264;1237;-50
2022/09/05 04:48:56;;;;;;;;;;;20.70;42.30;;;;;;447089;265;1258;-50
2022/09/05 04:50:57;;;;;;;;;;;20.70;42.30;;;;;;447208;264;1230;-50
2022/09/05 04:52:59;;;;;;;;;;;20.70;42.20;;;;;;447084;265;1303;-50
2022/09/05 04:55:00;;;;;;;;;;;20.70;42.30;;;;;;447128;264;1248;-50
2022/09/05 04:57:02;;;;;;;;;;;20.70;42.20;;;;;;447244;264;1271;-49
2022/09/05 04:59:03;;;;;;;;;;;20.60;42.20;;;;;;447446;264;2176;-50
2022/09/05 05:01:04;;;;;;;;;;;20.70;42.20;;;;;;447236;264;1396;-50
2022/09/05 05:03:06;;;;;;;;;;;20.70;42.20;;;;;;447442;264;1263;-50
2022/09/05 05:05:07;;;;;;;;;;;20.70;42.20;;;;;;447042;264;1217;-50
2022/09/05 05:07:08;;;;;;;;;;;20.70;42.20;;;;;;447341;264;1273;-50
2022/09/05 05:09:09;;;;;;;;;;;20.60;42.20;;;;;;447167;264;1292;-50
2022/09/05 05:11:11;;;;;;;;;;;20.70;42.20;;;;;;447394;264;1254;-50
2022/09/05 05:13:12;;;;;;;;;;;20.70;42.20;;;;;;447085;264;1179;-50
2022/09/05 05:15:16;;;;;;;;;;;20.70;42.30;;;;;;447447;264;1374;-51
2022/09/05 05:17:15;;;;;;;;;;;20.70;42.40;;;;;;447088;265;1414;-50
2022/09/05 05:19:16;;;;;;;;;;;20.70;42.40;;;;;;447238;264;2185;-51
2022/09/05 05:21:17;;;;;;;;;;;20.70;42.40;;;;;;447098;264;1338;-51
2022/09/05 05:23:19;;;;;;;;;;;20.70;42.30;;;;;;447390;264;1319;-50
2022/09/05 05:25:20;;;;;;;;;;;20.70;42.30;;;;;;447049;264;1239;-51
2022/09/05 05:27:21;;;;;;;;;;;20.70;42.30;;;;;;447262;264;1220;-50
2022/09/05 05:29:23;;;;;;;;;;;20.70;42.20;;;;;;447090;265;1272;-51
2022/09/05 05:31:24;;;;;;;;;;;20.70;42.20;;;;;;447201;264;1272;-50
2022/09/05 05:33:25;;;;;;;;;;;20.70;42.20;;;;;;447455;264;1352;-51
2022/09/05 05:35:27;;;;;;;;;;;20.70;42.20;;;;;;447407;264;1228;-49
2022/09/05 05:37:28;;;;;;;;;;;20.70;42.10;;;;;;447444;264;1301;-50
2022/09/05 05:39:30;;;;;;;;;;;20.70;42.30;;;;;;447321;264;2185;-50
2022/09/05 05:41:31;;;;;;;;;;;20.70;42.20;;;;;;447400;264;1259;-51
2022/09/05 05:43:33;;;;;;;;;;;20.70;42.20;;;;;;447335;264;1354;-50
2022/09/05 05:45:34;;;;;;;;;;;20.70;42.10;;;;;;447103;264;1343;-50
2022/09/05 05:47:35;;;;;;;;;;;20.70;42.20;;;;;;447208;264;1268;-51
2022/09/05 05:49:37;;;;;;;;;;;20.70;42.10;;;;;;447267;264;1777;-50
2022/09/05 05:51:38;;;;;;;;;;;20.70;42.20;;;;;;447212;264;1244;-50
2022/09/05 05:53:39;;;;;;;;;;;20.70;42.10;;;;;;447369;264;1878;-50
2022/09/05 05:55:40;;;;;;;;;;;20.70;42.10;;;;;;447048;264;1650;-50
2022/09/05 05:57:42;;;;;;;;;;;20.70;42.10;;;;;;447290;264;1340;-51
2022/09/05 05:59:43;;;;;;;;;;;20.70;42.10;;;;;;446992;265;2224;-50
2022/09/05 06:01:44;;;;;;;;;;;20.70;42.10;;;;;;447030;264;1302;-50
2022/09/05 06:03:46;;;;;;;;;;;20.70;42.10;;;;;;447124;264;1312;-50
2022/09/05 06:05:47;;;;;;;;;;;20.70;42.10;;;;;;447338;264;1333;-50
2022/09/05 06:07:49;;;;;;;;;;;20.70;42.10;;;;;;446975;265;1503;-51
2022/09/05 06:09:50;;;;;;;;;;;20.70;42.10;;;;;;447099;264;1263;-50
2022/09/05 06:11:51;;;;;;;;;;;20.70;42.10;;;;;;447000;264;1294;-50
2022/09/05 06:13:52;;;;;;;;;;;20.70;42.10;;;;;;447145;264;1506;-50
2022/09/05 06:15:54;;;;;;;;;;;20.70;42.10;;;;;;447268;264;1412;-51
2022/09/05 06:17:57;;;;;;;;;;;20.70;42.20;;;;;;446975;264;1342;-50
2022/09/05 06:19:56;;;;;;;;;;;20.70;42.20;;;;;;446944;265;2227;-50
2022/09/05 06:21:58;;;;;;;;;;;20.70;42.20;;;;;;447119;264;1298;-50
2022/09/05 06:23:59;;;;;;;;;;;20.70;42.30;;;;;;447126;264;1266;-50
2022/09/05 06:26:00;;;;;;;;;;;20.70;42.30;;;;;;446792;265;1443;-50
2022/09/05 06:28:02;;;;;;;;;;;20.70;42.20;;;;;;446812;264;1379;-50
2022/09/05 06:30:04;;;;;;;;;;;20.70;42.40;;;;;;446967;265;1244;-51
2022/09/05 06:32:04;;;;;;;;;;;20.70;42.60;;;;;;447089;264;2412;-49
2022/09/05 06:34:06;;;;;;;;;;;20.70;42.50;;;;;;447311;264;1188;-50
2022/09/05 06:36:07;;;;;;;;;;;20.70;42.50;;;;;;446961;264;1247;-50
2022/09/05 06:38:08;;;;;;;;;;;20.70;42.70;;;;;;446737;264;1294;-50
2022/09/05 06:40:11;;;;;;;;;;;20.70;42.60;;;;;;446637;265;2235;-50
2022/09/05 06:42:12;;;;;;;;;;;20.70;42.60;;;;;;446938;264;1340;-50
2022/09/05 06:44:14;;;;;;;;;;;20.70;42.60;;;;;;446670;265;1169;-50
2022/09/05 06:46:15;;;;;;;;;;;20.70;42.70;;;;;;447012;264;1257;-50
2022/09/05 06:48:17;;;;;;;;;;;20.70;42.60;;;;;;447067;264;1302;-50
2022/09/05 06:50:18;;;;;;;;;;;20.70;42.60;;;;;;446958;264;1274;-50
2022/09/05 06:52:19;;;;;;;;;;;20.70;42.60;;;;;;447035;264;1303;-50
2022/09/05 06:54:21;;;;;;;;;;;20.70;42.70;;;;;;446843;264;1110;-50
2022/09/05 06:56:22;;;;;;;;;;;20.70;42.70;;;;;;446745;264;1203;-50
2022/09/05 06:58:23;;;;;;;;;;;20.70;42.80;;;;;;446819;264;1392;-50
2022/09/05 07:00:24;;;;;;;;;;;20.70;42.80;;;;;;447134;264;2193;-50
2022/09/05 07:02:30;;;;;;;;;;;20.70;42.80;;;;;;446822;265;1142;-50
2022/09/05 07:04:27;;;;;;;;;;;20.70;42.70;;;;;;446735;264;1653;-50
2022/09/05 07:06:29;;;;;;;;;;;20.70;42.90;;;;;;447093;264;1235;-51
2022/09/05 07:08:30;;;;;;;;;;;20.70;42.80;;;;;;446883;265;1338;-50
2022/09/05 07:10:31;;;;;;;;;;;20.70;42.70;;;;;;447123;264;1169;-50
2022/09/05 07:12:33;;;;;;;;;;;20.70;42.80;;;;;;447047;264;1305;-50
2022/09/05 07:14:34;;;;;;;;;;;20.70;42.80;;;;;;446868;265;1347;-50
2022/09/05 07:16:36;;;;;;;;;;;20.70;42.90;;;;;;446972;264;1260;-50
2022/09/05 07:18:37;;;;;;;;;;;20.70;42.90;;;;;;446779;265;1295;-49
2022/09/05 07:20:38;;;;;;;;;;;20.80;43.00;;;;;;446741;265;2189;-50
2022/09/05 07:22:40;;;;;;;;;;;20.70;42.90;;;;;;446743;264;1452;-51
2022/09/05 07:24:41;;;;;;;;;;;20.70;42.90;;;;;;446622;265;2029;-51
2022/09/05 07:26:43;;;;;;;;;;;20.70;42.80;;;;;;446794;265;1248;-51
2022/09/05 07:28:44;;;;;;;;;;;20.70;43.00;;;;;;446934;264;1666;-51
2022/09/05 07:30:46;;;;;;;;;;;20.70;42.90;;;;;;446915;264;1285;-50
2022/09/05 07:32:47;;;;;;;;;;;20.70;42.90;;;;;;446946;264;1232;-50
2022/09/05 07:34:48;;;;;;;;;;;20.70;43.10;;;;;;446882;264;1337;-50
2022/09/05 07:36:50;;;;;;;;;;;20.70;43.00;;;;;;446700;264;1275;-50
2022/09/05 07:38:51;;;;;;;;;;;20.70;43.10;;;;;;446947;264;1219;-50
2022/09/05 07:40:52;;;;;;;;;;;20.70;43.10;;;;;;446898;263;2176;-50
2022/09/05 07:42:54;;;;;;;;;;;20.70;43.00;;;;;;446791;264;1212;-50
2022/09/05 07:44:55;;;;;;;;;;;20.70;43.10;;;;;;446773;264;1571;-50
2022/09/05 07:46:57;;;;;;;;;;;20.70;43.00;;;;;;446696;265;1376;-50
2022/09/05 07:48:59;;;;;;;;;;;20.70;43.10;;;;;;446707;265;1575;-50
2022/09/05 07:51:01;;;;;;;;;;;20.70;43.20;;;;;;447162;264;1484;-51
2022/09/05 07:53:03;;;;;;;;;;;20.70;43.30;;;;;;446975;264;2289;-50
2022/09/05 07:55:04;;;;;;;;;;;20.70;43.60;;;;;;447031;264;1297;-50
2022/09/05 07:57:05;;;;;;;;;;;20.70;43.40;;;;;;446837;263;2328;-50
2022/09/05 07:59:07;;;;;;;;;;;20.70;43.40;;;;;;447031;264;1342;-50
2022/09/05 08:01:07;;;;;;;;;;;20.70;43.40;;;;;;446660;265;2460;-50
2022/09/05 08:03:09;;;;;;;;;;;20.70;43.40;;;;;;446886;264;1528;-50
2022/09/05 08:05:11;;;;;;;;;;;20.70;43.50;;;;;;446760;264;1266;-50
2022/09/05 08:07:11;;;;;;;;;;;20.70;43.50;;;;;;446694;264;2043;-50
2022/09/05 08:09:13;;;;;;;;;;;20.70;43.50;;;;;;446718;265;1446;-50
2022/09/05 08:11:14;;;;;;;;;;;20.70;43.60;;;;;;446835;264;1316;-50
2022/09/05 08:13:15;;;;;;;;;;;20.70;43.50;;;;;;446707;264;1240;-50
2022/09/05 08:15:17;;;;;;;;;;;20.70;43.40;;;;;;446787;265;1200;-51
2022/09/05 08:17:18;;;;;;;;;;;20.70;43.60;;;;;;446819;264;1304;-49
2022/09/05 08:19:19;;;;;;;;;;;20.70;43.60;;;;;;447112;264;1619;-50
2022/09/05 08:21:22;;;;;;;;;;;20.70;43.70;;;;;;446901;264;2197;-50
2022/09/05 08:23:22;;;;;;;;;;;20.70;43.70;;;;;;446842;265;2151;-51
2022/09/05 08:25:24;;;;;;;;;;;20.70;43.60;;;;;;446779;264;1195;-50
2022/09/05 08:27:25;;;;;;;;;;;20.70;43.70;;;;;;446814;265;2076;-50
2022/09/05 08:29:27;;;;;;;;;;;20.70;43.70;;;;;;447022;264;1221;-50
2022/09/05 08:31:27;;;;;;;;;;;20.70;43.70;;;;;;446929;264;2233;-50
2022/09/05 08:33:31;;;;;;;;;;;20.70;43.60;;;;;;447085;264;1372;-50
2022/09/05 08:35:30;;;;;;;;;;;20.70;43.60;;;;;;447239;264;2441;-50
2022/09/05 08:37:32;;;;;;;;;;;20.70;43.50;;;;;;446958;264;1220;-50
2022/09/05 08:39:33;;;;;;;;;;;20.70;43.70;;;;;;446866;265;1341;-51
2022/09/05 08:41:34;;;;;;;;;;;20.70;43.60;;;;;;447154;264;2181;-51
2022/09/05 08:43:35;;;;;;;;;;;20.70;43.70;;;;;;446946;264;1240;-50
2022/09/05 08:45:37;;;;;;;;;;;20.70;43.60;;;;;;446872;265;1267;-50
2022/09/05 08:47:38;;;;;;;;;;;20.70;43.70;;;;;;446808;264;1328;-50
2022/09/05 08:49:39;;;;;;;;;;;20.70;43.80;;;;;;446838;265;1273;-50
2022/09/05 08:51:41;;;;;;;;;;;20.70;44.00;;;;;;446735;264;1343;-50
2022/09/05 08:53:42;;;;;;;;;;;20.70;43.70;;;;;;446962;264;1246;-50
2022/09/05 08:55:44;;;;;;;;;;;20.70;43.70;;;;;;446740;265;1363;-50
2022/09/05 08:57:45;;;;;;;;;;;20.70;43.70;;;;;;446751;265;1320;-50
2022/09/05 08:59:46;;;;;;;;;;;20.70;43.80;;;;;;446768;265;1296;-50
2022/09/05 09:01:48;;;;;;;;;;;20.70;43.80;;;;;;446900;264;2185;-50
2022/09/05 09:03:49;;;;;;;;;;;20.70;43.80;;;;;;446775;264;1192;-50
2022/09/05 09:05:50;;;;;;;;;;;20.70;43.80;;;;;;446725;265;1217;-50
2022/09/05 09:07:52;;;;;;;;;;;20.70;43.70;;;;;;446809;264;1197;-50
2022/09/05 09:09:53;;;;;;;;;;;20.70;43.80;;;;;;446904;263;1664;-51
2022/09/05 09:11:54;;;;;;;;;;;20.70;43.80;;;;;;446870;265;1169;-50
2022/09/05 09:13:56;;;;;;;;;;;20.70;44.00;;;;;;446934;263;1221;-50
2022/09/05 09:15:57;;;;;;;;;;;20.70;44.00;;;;;;446998;264;1205;-50
2022/09/05 09:17:58;;;;;;;;;;;20.70;44.10;;;;;;446851;265;1319;-50
2022/09/05 09:20:03;;;;;;;;;;;20.70;44.30;;;;;;447012;264;1314;-50
2022/09/05 09:22:01;;;;;;;;;;;20.70;44.20;;;;;;446833;264;2224;-50
2022/09/05 09:24:02;;;;;;;;;;;20.70;44.10;;;;;;447065;264;1109;-50
2022/09/05 09:26:04;;;;;;;;;;;20.70;44.10;;;;;;446842;265;1343;-50
2022/09/05 09:28:05;;;;;;;;;;;20.70;44.30;;;;;;447061;264;1169;-51
2022/09/05 09:30:06;;;;;;;;;;;20.70;44.10;;;;;;447016;264;1294;-50
2022/09/05 09:32:08;;;;;;;;;;;20.70;44.10;;;;;;446849;264;1284;-51
2022/09/05 09:34:09;;;;;;;;;;;20.70;44.20;;;;;;446592;265;1483;-50
2022/09/05 09:36:10;;;;;;;;;;;20.70;44.20;;;;;;446863;264;1227;-50
2022/09/05 09:38:12;;;;;;;;;;;20.70;44.20;;;;;;447061;264;1209;-50
2022/09/05 09:40:14;;;;;;;;;;;20.70;44.10;;;;;;446749;265;1569;-50
2022/09/05 09:42:15;;;;;;;;;;;20.70;44.20;;;;;;446904;264;2177;-50
2022/09/05 09:44:18;;;;;;;;;;;20.70;44.20;;;;;;446900;265;1300;-51
2022/09/05 09:46:19;;;;;;;;;;;20.80;44.30;;;;;;446880;264;2147;-50
2022/09/05 09:48:19;;;;;;;;;;;20.70;44.20;;;;;;446468;265;1547;-50
2022/09/05 09:50:20;;;;;;;;;;;20.70;44.30;;;;;;446610;265;1499;-50
2022/09/05 09:52:23;;;;;;;;;;;20.70;44.20;;;;;;446625;264;1315;-50
2022/09/05 09:54:23;;;;;;;;;;;20.70;44.20;;;;;;446732;265;2221;-50
2022/09/05 09:56:25;;;;;;;;;;;20.70;44.30;;;;;;446816;264;1237;-50
2022/09/05 09:58:26;;;;;;;;;;;20.70;44.30;;;;;;447013;264;2199;-50
2022/09/05 10:00:28;;;;;;;;;;;20.80;44.40;;;;;;446780;265;1401;-51
2022/09/05 10:02:30;;;;;;;;;;;20.70;44.20;;;;;;446817;264;2224;-50
2022/09/05 10:04:30;;;;;;;;;;;20.70;44.30;;;;;;446674;264;2440;-50
2022/09/05 10:06:31;;;;;;;;;;;20.70;44.40;;;;;;446795;264;1377;-50
2022/09/05 10:08:33;;;;;;;;;;;20.70;44.40;;;;;;446782;264;1328;-50
2022/09/05 10:10:34;;;;;;;;;;;20.70;44.30;;;;;;446712;264;2258;-50
2022/09/05 10:12:35;;;;;;;;;;;20.80;44.40;;;;;;446886;264;1287;-50
2022/09/05 10:14:37;;;;;;;;;;;20.80;44.70;;;;;;446838;264;1266;-49
2022/09/05 10:16:38;;;;;;;;;;;20.80;44.80;;;;;;446690;264;1276;-50
2022/09/05 10:18:39;;;;;;;;;;;20.80;44.70;;;;;;446900;264;1290;-51
2022/09/05 10:20:41;;;;;;;;;;;20.80;44.50;;;;;;446670;263;1241;-50
2022/09/05 10:22:42;;;;;;;;;;;20.80;44.60;;;;;;446839;264;2160;-50
2022/09/05 10:24:44;;;;;;;;;;;20.80;44.50;;;;;;447113;264;1384;-50
2022/09/05 10:26:45;;;;;;;;;;;20.80;44.50;;;;;;446799;264;1945;-51
2022/09/05 10:28:46;;;;;;;;;;;20.80;44.40;;;;;;446890;264;1429;-50
2022/09/05 10:30:47;;;;;;;;;;;20.80;44.70;;;;;;446842;264;1243;-49
2022/09/05 10:32:49;;;;;;;;;;;20.80;44.50;;;;;;446856;264;1383;-50
2022/09/05 10:34:50;;;;;;;;;;;20.80;44.50;;;;;;446845;264;1194;-50
2022/09/05 10:36:53;;;;;;;;;;;20.80;44.70;;;;;;446891;264;1235;-50
2022/09/05 10:38:53;;;;;;;;;;;20.80;44.70;;;;;;446766;265;2407;-51
2022/09/05 10:40:54;;;;;;;;;;;20.80;44.80;;;;;;446845;264;1268;-49
2022/09/05 10:42:57;;;;;;;;;;;20.70;44.90;;;;;;447118;264;2176;-51
2022/09/05 10:44:56;;;;;;;;;;;20.70;44.80;;;;;;446789;265;1909;-50
2022/09/05 10:46:58;;;;;;;;;;;20.80;44.80;;;;;;446720;265;1291;-50
2022/09/05 10:48:59;;;;;;;;;;;20.70;44.90;;;;;;446724;265;1225;-51
2022/09/05 10:51:00;;;;;;;;;;;20.80;44.90;;;;;;446881;264;1261;-50
2022/09/05 10:53:02;;;;;;;;;;;20.80;44.80;;;;;;446707;264;1288;-50
2022/09/05 10:55:04;;;;;;;;;;;20.80;44.80;;;;;;446711;265;2417;-50
2022/09/05 10:57:05;;;;;;;;;;;20.80;44.80;;;;;;446679;265;2355;-51
2022/09/05 10:59:06;;;;;;;;;;;20.80;44.80;;;;;;446712;265;1209;-50
2022/09/05 11:01:08;;;;;;;;;;;20.80;44.80;;;;;;446696;264;1250;-50
2022/09/05 11:03:09;;;;;;;;;;;20.80;44.90;;;;;;446741;264;1194;-50
2022/09/05 11:05:10;;;;;;;;;;;20.80;44.80;;;;;;446662;265;1250;-51
2022/09/05 11:07:11;;;;;;;;;;;20.80;44.80;;;;;;446760;264;1207;-50
2022/09/05 11:09:13;;;;;;;;;;;20.80;44.80;;;;;;446695;264;1281;-50
2022/09/05 11:11:14;;;;;;;;;;;20.80;44.80;;;;;;446627;264;1312;-51
2022/09/05 11:13:15;;;;;;;;;;;20.80;44.80;;;;;;446698;264;1254;-51
2022/09/05 11:15:17;;;;;;;;;;;20.80;45.00;;;;;;446905;264;1097;-50
2022/09/05 11:17:18;;;;;;;;;;;20.80;44.80;;;;;;446826;264;1405;-50
2022/09/05 11:19:19;;;;;;;;;;;20.70;44.70;;;;;;446727;265;1240;-51
2022/09/05 11:21:21;;;;;;;;;;;20.70;44.80;;;;;;446938;264;2228;-51
2022/09/05 11:23:22;;;;;;;;;;;20.80;44.70;;;;;;446635;264;1283;-50
2022/09/05 11:25:23;;;;;;;;;;;20.80;44.70;;;;;;446857;264;1370;-51
2022/09/05 11:27:25;;;;;;;;;;;20.80;44.80;;;;;;446898;264;1522;-50
2022/09/05 11:29:26;;;;;;;;;;;20.70;44.80;;;;;;446916;264;1207;-51
2022/09/05 11:31:27;;;;;;;;;;;20.80;45.00;;;;;;446681;264;1629;-49
2022/09/05 11:33:29;;;;;;;;;;;20.80;44.70;;;;;;446806;265;1559;-50
2022/09/05 11:35:31;;;;;;;;;;;20.80;44.90;;;;;;446742;265;1656;-50
2022/09/05 11:37:31;;;;;;;;;;;20.80;44.80;;;;;;446749;264;2036;-50
2022/09/05 11:39:33;;;;;;;;;;;20.80;44.90;;;;;;447046;264;1319;-50
2022/09/05 11:41:34;;;;;;;;;;;20.80;44.80;;;;;;446672;263;2221;-51
2022/09/05 11:43:35;;;;;;;;;;;20.80;44.90;;;;;;446862;264;1191;-50
2022/09/05 11:45:37;;;;;;;;;;;20.80;44.90;;;;;;446427;265;1361;-50
2022/09/05 11:47:38;;;;;;;;;;;20.80;44.80;;;;;;446187;264;1489;-50
2022/09/05 11:49:41;;;;;;;;;;;20.80;45.00;;;;;;446769;265;1397;-50
2022/09/05 11:51:41;;;;;;;;;;;20.80;44.90;;;;;;446697;265;2190;-51
2022/09/05 11:53:43;;;;;;;;;;;20.80;45.00;;;;;;446740;265;1301;-50
2022/09/05 11:55:45;;;;;;;;;;;20.80;45.00;;;;;;446789;264;1264;-51
2022/09/05 11:57:46;;;;;;;;;;;20.80;44.90;;;;;;446776;265;1630;-50